Time;durP1;ratioP1;P1;durP2;ratioP2;P2;SDS_P1;SDS_P2;PMS_P1;PMS_P2;Temp;Humidity;BMP_temperature;BMP_pressure;BME280_temperature;BME280_humidity;BME280_pressure;Samples;Min_cycle;Max_cycle;Signal;HPM_P1;HPM_P2
2023/12/12 00:00:52;;;;;;;5.95;1.63;;;;;;;6.12;100.00;100017.75;5058510;28;20048;-80
2023/12/12 00:03:19;;;;;;;5.65;0.98;;;;;;;6.17;100.00;100012.56;5062356;28;20094;-83
2023/12/12 00:05:47;;;;;;;4.63;1.17;;;;;;;6.13;100.00;100015.13;5064372;28;20469;-82
2023/12/12 00:08:13;;;;;;;7.65;1.55;;;;;;;6.20;100.00;100021.19;5062937;28;20075;-81
2023/12/12 00:10:40;;;;;;;3.38;0.90;;;;;;;6.19;100.00;100014.28;5063866;28;20040;-81
2023/12/12 00:13:06;;;;;;;6.28;1.67;;;;;;;6.20;100.00;100017.75;5080394;28;20052;-80
2023/12/12 00:15:33;;;;;;;6.75;1.27;;;;;;;6.26;100.00;100021.19;5063150;28;20049;-80
2023/12/12 00:18:00;;;;;;;4.78;1.20;;;;;;;6.28;100.00;100018.59;5082909;28;20131;-82
2023/12/12 00:20:26;;;;;;;1.17;0.88;;;;;;;6.27;100.00;100017.72;5078726;28;20051;-82
2023/12/12 00:22:53;;;;;;;3.65;1.42;;;;;;;6.29;100.00;100004.72;5066048;28;20062;-80
2023/12/12 00:25:21;;;;;;;4.03;1.20;;;;;;;6.28;100.00;100011.69;5081028;28;20048;-82
2023/12/12 00:27:47;;;;;;;5.80;1.38;;;;;;;6.28;100.00;100013.38;5077675;28;20044;-81
2023/12/12 00:30:14;;;;;;;8.25;1.70;;;;;;;6.32;100.00;100016.84;5064893;28;20062;-81
2023/12/12 00:32:41;;;;;;;3.10;1.08;;;;;;;6.32;100.00;100012.50;5064622;28;20047;-81
2023/12/12 00:35:08;;;;;;;6.88;2.03;;;;;;;6.31;100.00;100015.13;5078726;28;20060;-81
2023/12/12 00:37:34;;;;;;;7.88;1.42;;;;;;;6.29;100.00;100009.94;5063234;28;20283;-82
2023/12/12 00:40:01;;;;;;;3.53;2.10;;;;;;;6.27;100.00;100015.13;5065168;28;20028;-81
2023/12/12 00:42:28;;;;;;;3.83;1.13;;;;;;;6.30;100.00;100019.47;5059408;28;20499;-82
2023/12/12 00:44:54;;;;;;;7.72;1.60;;;;;;;6.32;100.00;100022.91;5059430;28;20090;-82
2023/12/12 00:47:21;;;;;;;7.10;3.97;;;;;;;6.36;100.00;100028.97;5081212;28;20040;-82
2023/12/12 00:49:47;;;;;;;5.13;1.45;;;;;;;6.35;100.00;100030.72;5077919;28;20040;-82
2023/12/12 00:52:14;;;;;;;5.88;1.30;;;;;;;6.35;100.00;100041.13;5081806;28;20036;-81
2023/12/12 00:54:40;;;;;;;4.22;1.73;;;;;;;6.34;100.00;100034.19;5063708;28;20044;-79
2023/12/12 00:57:07;;;;;;;4.22;1.30;;;;;;;6.37;100.00;100026.38;5062609;28;20478;-80
2023/12/12 00:59:33;;;;;;;6.93;1.40;;;;;;;6.37;100.00;100036.75;5082833;28;20044;-82
2023/12/12 01:02:00;;;;;;;7.45;2.42;;;;;;;6.32;100.00;100041.09;5063751;28;20527;-80
2023/12/12 01:04:26;;;;;;;9.32;1.27;;;;;;;6.35;100.00;100038.53;5078042;28;20139;-81
2023/12/12 01:06:52;;;;;;;6.53;2.10;;;;;;;6.35;100.00;100032.44;5056991;28;20052;-80
2023/12/12 01:09:20;;;;;;;8.05;1.67;;;;;;;6.36;100.00;100039.38;5079107;28;20054;-82
2023/12/12 01:11:46;;;;;;;3.15;1.80;;;;;;;6.33;100.00;100037.63;5069569;28;20078;-82
2023/12/12 01:14:14;;;;;;;7.63;1.58;;;;;;;6.32;100.00;100042.84;5065818;28;20052;-82
2023/12/12 01:16:40;;;;;;;6.40;1.52;;;;;;;6.31;100.00;100046.31;5062624;28;20043;-82
2023/12/12 01:19:07;;;;;;;3.40;1.48;;;;;;;6.31;100.00;100052.41;5060671;28;20541;-81
2023/12/12 01:21:34;;;;;;;3.03;1.98;;;;;;;6.27;100.00;100055.84;5061718;28;20048;-81
2023/12/12 01:24:01;;;;;;;7.30;1.88;;;;;;;6.31;100.00;100055.00;5060437;28;20039;-81
2023/12/12 01:26:30;;;;;;;6.35;1.60;;;;;;;6.31;100.00;100056.72;5078556;28;20075;-82
2023/12/12 01:28:56;;;;;;;6.38;1.70;;;;;;;6.35;100.00;100054.13;5075542;28;20055;-81
2023/12/12 01:31:23;;;;;;;4.25;1.40;;;;;;;6.39;100.00;100061.03;5063958;28;20052;-80
2023/12/12 01:33:50;;;;;;;7.68;1.83;;;;;;;6.41;100.00;100063.63;5072821;28;20094;-80
2023/12/12 01:36:16;;;;;;;8.75;1.75;;;;;;;6.42;100.00;100066.22;5060566;28;20052;-81
2023/12/12 01:38:45;;;;;;;7.18;1.77;;;;;;;6.42;100.00;100066.22;5059284;28;20048;-82
2023/12/12 01:41:11;;;;;;;5.32;1.77;;;;;;;6.39;100.00;100060.19;5072477;28;20471;-80
2023/12/12 01:43:37;;;;;;;4.25;1.77;;;;;;;6.35;100.00;100048.03;5080233;28;20040;-84
2023/12/12 01:46:07;;;;;;;9.43;1.60;;;;;;;6.41;100.00;100051.53;5061323;28;20471;-81
2023/12/12 01:48:34;;;;;;;8.55;1.52;;;;;;;6.42;100.00;100050.63;5063413;28;20458;-80
2023/12/12 01:51:02;;;;;;;6.13;1.13;;;;;;;6.40;100.00;100054.97;5064115;28;20043;-81
2023/12/12 01:53:41;;;;;;;4.30;1.63;;;;;;;6.36;100.00;100052.38;5066373;28;20510;-81
2023/12/12 01:56:08;;;;;;;4.53;1.30;;;;;;;6.33;100.00;100048.03;5065288;28;20052;-80
2023/12/12 01:58:41;;;;;;;8.13;1.50;;;;;;;6.34;100.00;100043.72;5062426;28;20036;-81
2023/12/12 02:01:08;;;;;;;6.23;1.77;;;;;;;6.38;100.00;100048.03;5062802;28;20056;-81
2023/12/12 02:03:36;;;;;;;7.10;1.73;;;;;;;6.37;100.00;100043.72;5060609;28;20048;-82
2023/12/12 02:06:04;;;;;;;8.73;2.47;;;;;;;6.35;100.00;100032.44;5063046;28;20501;-81
2023/12/12 02:08:31;;;;;;;4.28;1.08;;;;;;;6.36;100.00;100028.97;5064828;28;20074;-79
2023/12/12 02:10:58;;;;;;;4.30;1.60;;;;;;;6.40;100.00;100038.50;5077794;28;20078;-79
2023/12/12 02:13:24;;;;;;;16.45;4.50;;;;;;;6.36;100.00;100036.78;5078793;28;20127;-80
2023/12/12 02:15:52;;;;;;;4.70;1.17;;;;;;;6.35;100.00;100037.63;5062344;28;20052;-81
2023/12/12 02:18:19;;;;;;;3.58;1.02;;;;;;;6.36;100.00;100035.06;5065372;28;20079;-81
2023/12/12 02:20:45;;;;;;;6.03;1.08;;;;;;;6.36;100.00;100037.66;5056974;28;20478;-80
2023/12/12 02:23:12;;;;;;;4.80;1.33;;;;;;;6.41;100.00;100033.31;5055004;28;20036;-81
2023/12/12 02:25:39;;;;;;;4.95;1.58;;;;;;;6.41;100.00;100042.84;5063733;28;20700;-80
2023/12/12 02:28:08;;;;;;;1.92;1.13;;;;;;;6.34;100.00;100035.94;5060801;28;20113;-82
2023/12/12 02:30:36;;;;;;;5.97;1.48;;;;;;;6.33;100.00;100035.03;5064082;28;20055;-81
2023/12/12 02:33:04;;;;;;;5.85;2.05;;;;;;;6.29;100.00;100041.13;5080998;28;20055;-81
2023/12/12 02:35:31;;;;;;;8.30;1.20;;;;;;;6.29;100.00;100041.13;5082090;28;20151;-80
2023/12/12 02:37:58;;;;;;;0.88;0.70;;;;;;;6.30;100.00;100035.06;5068612;28;20044;-83
2023/12/12 02:40:24;;;;;;;5.00;0.90;;;;;;;6.22;100.00;100035.06;5067528;28;20055;-82
2023/12/12 02:42:51;;;;;;;7.60;1.20;;;;;;;6.15;100.00;100033.31;5064449;28;20178;-80
2023/12/12 02:45:17;;;;;;;3.10;0.82;;;;;;;6.07;100.00;100035.06;5081915;28;20044;-79
2023/12/12 02:47:44;;;;;;;4.65;1.42;;;;;;;5.99;100.00;100045.47;5079667;28;20045;-81
2023/12/12 02:50:12;;;;;;;6.15;1.30;;;;;;;5.90;100.00;100043.69;5083723;28;20512;-80
2023/12/12 02:52:38;;;;;;;3.95;1.65;;;;;;;5.87;100.00;100043.72;5062246;28;20044;-80
2023/12/12 02:55:06;;;;;;;1.98;0.90;;;;;;;5.81;100.00;100043.69;5082476;28;20032;-80
2023/12/12 02:57:32;;;;;;;10.50;2.53;;;;;;;5.76;100.00;100037.63;5051925;28;20048;-82
2023/12/12 02:59:59;;;;;;;1.02;0.90;;;;;;;5.74;100.00;100041.97;5071150;28;20063;-81
2023/12/12 03:02:25;;;;;;;3.00;0.95;;;;;;;5.66;100.00;100039.38;5081897;28;20052;-82
2023/12/12 03:04:52;;;;;;;2.72;0.95;;;;;;;5.61;100.00;100041.94;5063305;28;20055;-80
2023/12/12 03:07:18;;;;;;;5.00;1.77;;;;;;;5.59;100.00;100037.59;5078621;28;20051;-81
2023/12/12 03:09:45;;;;;;;1.70;0.82;;;;;;;5.54;100.00;100027.25;5060796;28;20036;-81
2023/12/12 03:12:11;;;;;;;2.22;0.75;;;;;;;5.51;100.00;100029.81;5083588;28;20105;-79
2023/12/12 03:14:38;;;;;;;4.13;1.73;;;;;;;5.47;100.00;100026.38;5075100;28;20235;-80
2023/12/12 03:17:07;;;;;;;9.05;1.83;;;;;;;5.40;100.00;100019.41;5066107;28;20564;-80
2023/12/12 03:19:34;;;;;;;4.60;1.77;;;;;;;5.33;100.00;100019.41;5081553;28;20063;-79
2023/12/12 03:22:01;;;;;;;3.80;0.90;;;;;;;5.23;100.00;100014.19;5065035;28;20167;-80
2023/12/12 03:24:27;;;;;;;1.67;0.98;;;;;;;5.20;100.00;100016.78;5061693;28;20048;-80
2023/12/12 03:26:54;;;;;;;1.52;1.35;;;;;;;5.18;100.00;100010.72;5084646;28;20052;-80
2023/12/12 03:29:20;;;;;;;3.97;1.30;;;;;;;5.12;100.00;100016.75;5064363;28;20058;-80
2023/12/12 03:31:48;;;;;;;3.95;2.15;;;;;;;5.09;100.00;100008.94;5068021;28;20753;-80
2023/12/12 03:34:15;;;;;;;7.50;2.17;;;;;;;5.05;100.00;100009.81;5064830;28;20079;-81
2023/12/12 03:36:46;;;;;;;4.45;1.75;;;;;;;5.01;100.00;100000.28;5083713;28;20054;-82
2023/12/12 03:39:12;;;;;;;8.38;2.08;;;;;;;4.98;100.00;100008.06;5068187;28;20044;-82
2023/12/12 03:41:39;;;;;;;5.75;1.42;;;;;;;4.94;100.00;100006.28;5064963;28;20076;-81
2023/12/12 03:44:06;;;;;;;4.22;1.45;;;;;;;4.93;100.00;100015.81;5067118;28;20054;-82
2023/12/12 03:46:32;;;;;;;8.13;2.20;;;;;;;4.91;100.00;100012.34;5074009;28;20561;-82
2023/12/12 03:48:59;;;;;;;3.42;1.50;;;;;;;4.92;100.00;100019.25;5068918;28;20040;-82
2023/12/12 03:51:25;;;;;;;5.30;1.80;;;;;;;4.93;100.00;100020.16;5069917;28;20040;-82
2023/12/12 03:53:52;;;;;;;3.95;1.92;;;;;;;4.95;100.00;100013.22;5068318;28;20044;-82
2023/12/12 03:56:18;;;;;;;5.80;1.65;;;;;;;4.99;100.00;100014.97;5067605;28;20056;-82
2023/12/12 03:58:46;;;;;;;5.07;1.70;;;;;;;4.96;100.00;100008.03;5063238;28;20059;-82
2023/12/12 04:01:12;;;;;;;8.82;2.13;;;;;;;4.94;100.00;100014.97;5083233;28;20051;-82
2023/12/12 04:03:39;;;;;;;9.95;2.40;;;;;;;4.93;100.00;100014.97;5083347;28;20040;-81
2023/12/12 04:06:06;;;;;;;8.15;2.75;;;;;;;4.91;100.00;100020.13;5081696;28;20062;-81
2023/12/12 04:08:33;;;;;;;16.00;3.13;;;;;;;4.91;100.00;100024.44;5080336;28;20176;-81
2023/12/12 04:11:01;;;;;;;9.65;2.00;;;;;;;4.91;100.00;100027.91;5068647;28;20432;-81
2023/12/12 04:13:27;;;;;;;7.07;2.80;;;;;;;4.88;100.00;100027.03;5064093;28;20048;-81
2023/12/12 04:15:53;;;;;;;7.13;3.55;;;;;;;4.87;100.00;100023.56;5064451;28;20040;-80
2023/12/12 04:18:20;;;;;;;4.35;1.58;;;;;;;4.88;100.00;100032.22;5079387;28;20040;-81
2023/12/12 04:20:46;;;;;;;7.25;2.30;;;;;;;4.88;100.00;100027.91;5064070;28;20044;-80
2023/12/12 04:23:13;;;;;;;2.90;1.95;;;;;;;4.86;100.00;100019.22;5063283;28;20782;-80
2023/12/12 04:25:39;;;;;;;10.88;2.60;;;;;;;4.88;100.00;100024.44;5065777;28;20415;-80
2023/12/12 04:28:08;;;;;;;2.67;1.90;;;;;;;4.89;100.00;100023.56;5064816;28;20401;-81
2023/12/12 04:30:34;;;;;;;6.30;3.20;;;;;;;4.86;100.00;100027.00;5067201;28;20032;-80
2023/12/12 04:33:01;;;;;;;6.03;2.40;;;;;;;4.84;100.00;100020.97;5080994;28;20305;-81
2023/12/12 04:35:27;;;;;;;5.65;2.47;;;;;;;4.84;100.00;100020.97;5078317;28;20036;-80
2023/12/12 04:37:54;;;;;;;10.77;2.47;;;;;;;4.82;100.00;100022.69;5080995;28;20050;-80
2023/12/12 04:40:20;;;;;;;11.23;2.53;;;;;;;4.84;100.00;100027.88;5068509;28;20037;-79
2023/12/12 04:42:47;;;;;;;10.50;2.50;;;;;;;4.82;100.00;100029.59;5066400;28;20067;-82
2023/12/12 04:45:13;;;;;;;6.82;3.33;;;;;;;4.81;100.00;100026.16;5082846;28;20099;-80
2023/12/12 04:47:40;;;;;;;7.45;2.63;;;;;;;4.77;100.00;100024.38;5061261;28;20054;-80
2023/12/12 04:50:07;;;;;;;7.07;2.70;;;;;;;4.69;100.00;100031.28;5064525;28;20048;-80
2023/12/12 04:52:34;;;;;;;9.00;2.88;;;;;;;4.65;100.00;100020.00;5077328;28;20050;-80
2023/12/12 04:55:01;;;;;;;9.90;3.80;;;;;;;4.63;100.00;100026.94;5065798;28;20044;-80
2023/12/12 04:57:27;;;;;;;14.70;3.00;;;;;;;4.62;100.00;100025.19;5080477;28;20376;-81
2023/12/12 04:59:58;;;;;;;5.47;2.28;;;;;;;4.63;100.00;100027.78;5081240;28;20075;-80
2023/12/12 05:02:28;;;;;;;6.10;3.05;;;;;;;4.64;100.00;100026.03;5070538;28;20067;-80
2023/12/12 05:04:54;;;;;;;5.78;3.53;;;;;;;4.68;100.00;100019.16;5063379;28;20048;-82
2023/12/12 05:07:21;;;;;;;5.43;3.00;;;;;;;4.66;100.00;100019.16;5075311;28;20102;-81
2023/12/12 05:09:47;;;;;;;12.02;3.58;;;;;;;4.62;100.00;100017.41;5081906;28;20044;-82
2023/12/12 05:12:14;;;;;;;8.90;3.60;;;;;;;4.64;100.00;100024.34;5066903;28;20380;-81
2023/12/12 05:14:40;;;;;;;9.82;3.72;;;;;;;4.69;100.00;100031.28;5073012;28;20482;-81
2023/12/12 05:17:07;;;;;;;8.45;4.32;;;;;;;4.73;100.00;100030.41;5080923;28;20063;-80
2023/12/12 05:19:33;;;;;;;5.90;3.78;;;;;;;4.74;100.00;100021.78;5081320;28;20044;-81
2023/12/12 05:22:00;;;;;;;8.70;3.25;;;;;;;4.78;100.00;100027.00;5063986;28;20056;-80
2023/12/12 05:24:26;;;;;;;8.63;4.55;;;;;;;4.78;100.00;100031.31;5061586;28;20047;-79
2023/12/12 05:26:53;;;;;;;11.75;4.53;;;;;;;4.80;100.00;100030.47;5060633;28;20075;-82
2023/12/12 05:29:19;;;;;;;19.00;4.32;;;;;;;4.77;100.00;100032.16;5078604;28;20045;-80
2023/12/12 05:31:46;;;;;;;14.55;4.72;;;;;;;4.76;100.00;100040.81;5083430;28;20161;-80
2023/12/12 05:34:13;;;;;;;10.75;5.05;;;;;;;4.69;100.00;100037.31;5065457;28;20543;-80
2023/12/12 05:36:39;;;;;;;12.70;5.97;;;;;;;4.68;100.00;100045.09;5078278;28;20040;-82
2023/12/12 05:39:09;;;;;;;10.73;4.13;;;;;;;4.68;100.00;100050.28;5079495;28;20059;-80
2023/12/12 05:41:36;;;;;;;10.50;3.58;;;;;;;4.69;100.00;100047.69;5075393;28;20055;-80
2023/12/12 05:44:03;;;;;;;9.90;4.28;;;;;;;4.66;100.00;100047.69;5064934;28;20522;-82
2023/12/12 05:46:30;;;;;;;7.25;3.72;;;;;;;4.59;100.00;100049.38;5076315;28;20821;-82
2023/12/12 05:48:58;;;;;;;13.02;5.28;;;;;;;4.53;100.00;100045.88;5064579;28;20048;-81
2023/12/12 05:51:24;;;;;;;10.98;5.18;;;;;;;4.47;100.00;100044.09;5060733;28;20086;-80
2023/12/12 05:53:51;;;;;;;11.05;4.40;;;;;;;4.50;100.00;100057.09;5072512;28;20067;-81
2023/12/12 05:56:18;;;;;;;7.80;4.10;;;;;;;4.45;100.00;100054.47;5080747;28;20044;-81
2023/12/12 05:58:46;;;;;;;8.00;3.88;;;;;;;4.47;100.00;100046.69;5059906;28;20051;-81
2023/12/12 06:01:17;;;;;;;10.80;4.95;;;;;;;4.49;100.00;100049.31;5066784;28;20052;-80
2023/12/12 06:03:44;;;;;;;16.10;5.18;;;;;;;4.50;100.00;100049.31;5075477;28;20082;-81
2023/12/12 06:06:11;;;;;;;12.35;4.13;;;;;;;4.51;100.00;100043.28;5063113;28;20048;-81
2023/12/12 06:08:37;;;;;;;12.73;5.18;;;;;;;4.55;100.00;100052.81;5056582;28;20137;-82
2023/12/12 06:11:04;;;;;;;9.35;4.80;;;;;;;4.59;100.00;100045.94;5049982;28;20044;-80
2023/12/12 06:13:30;;;;;;;10.63;4.40;;;;;;;4.64;100.00;100049.38;5050903;28;20051;-81
2023/12/12 06:15:58;;;;;;;12.45;4.57;;;;;;;4.67;100.00;100052.00;5042264;28;20045;-83
2023/12/12 06:18:27;;;;;;;8.18;6.00;;;;;;;4.66;100.00;100052.84;5037449;28;20059;-80
2023/12/12 06:20:54;;;;;;;10.88;4.70;;;;;;;4.68;100.00;100047.69;5061505;28;20032;-81
2023/12/12 06:23:20;;;;;;;13.23;4.47;;;;;;;4.69;100.00;100050.28;5045660;28;20045;-80
2023/12/12 06:25:48;;;;;;;16.75;4.78;;;;;;;4.71;100.00;100052.91;5042203;28;20044;-82
2023/12/12 06:28:14;;;;;;;7.95;4.38;;;;;;;4.71;100.00;100050.31;5042514;28;20051;-80
2023/12/12 06:30:42;;;;;;;11.43;5.43;;;;;;;4.74;100.00;100058.09;5043257;28;20075;-81
2023/12/12 06:33:09;;;;;;;10.93;3.80;;;;;;;4.77;100.00;100051.19;5051227;28;20060;-81
2023/12/12 06:35:35;;;;;;;7.60;5.13;;;;;;;4.77;100.00;100053.78;5060590;28;20056;-81
2023/12/12 06:38:11;;;;;;;13.00;4.35;;;;;;;4.80;100.00;100055.53;5048778;28;20143;-81
2023/12/12 06:40:37;;;;;;;13.45;5.15;;;;;;;4.82;100.00;100048.63;5052543;28;20047;-79
2023/12/12 06:43:03;;;;;;;10.25;4.53;;;;;;;4.88;100.00;100050.38;5061442;28;20887;-80
2023/12/12 06:45:30;;;;;;;11.73;4.95;;;;;;;4.95;100.00;100049.53;5057602;28;20551;-81
2023/12/12 06:47:57;;;;;;;9.13;5.70;;;;;;;5.00;100.00;100050.44;5046226;28;20079;-80
2023/12/12 06:50:23;;;;;;;16.10;5.78;;;;;;;5.05;100.00;100048.72;5058970;28;20445;-80
2023/12/12 06:52:50;;;;;;;13.45;4.95;;;;;;;5.08;100.00;100043.53;5055049;28;20059;-78
2023/12/12 06:55:17;;;;;;;10.38;5.15;;;;;;;5.12;100.00;100047.91;5060827;28;20091;-79
2023/12/12 06:57:43;;;;;;;13.15;5.30;;;;;;;5.18;100.00;100043.59;5043041;28;20153;-81
2023/12/12 07:00:11;;;;;;;9.82;4.68;;;;;;;5.20;100.00;100045.31;5061774;28;20048;-81
2023/12/12 07:02:37;;;;;;;11.50;5.18;;;;;;;5.26;100.00;100047.06;5057769;28;20049;-80
2023/12/12 07:05:05;;;;;;;12.30;4.88;;;;;;;5.33;100.00;100045.34;5060159;28;20066;-80
2023/12/12 07:07:32;;;;;;;12.23;5.25;;;;;;;5.37;100.00;100041.88;5047283;28;20051;-79
2023/12/12 07:09:59;;;;;;;9.85;5.70;;;;;;;5.42;100.00;100046.25;5061923;28;20126;-79
2023/12/12 07:12:28;;;;;;;10.70;7.05;;;;;;;5.49;100.00;100041.03;5046245;28;20059;-80
2023/12/12 07:14:54;;;;;;;6.95;4.68;;;;;;;5.53;100.00;100046.25;5042728;28;20062;-78
2023/12/12 07:17:21;;;;;;;11.68;5.95;;;;;;;5.49;100.00;100043.66;5046117;28;20504;-81
2023/12/12 07:19:48;;;;;;;5.80;4.07;;;;;;;5.50;100.00;100046.28;5063943;28;20040;-81
2023/12/12 07:22:14;;;;;;;12.88;5.28;;;;;;;5.54;100.00;100049.72;5049234;28;20052;-81
2023/12/12 07:24:41;;;;;;;8.88;4.72;;;;;;;5.58;100.00;100047.13;5048752;28;20133;-79
2023/12/12 07:27:07;;;;;;;12.35;4.88;;;;;;;5.62;100.00;100051.47;5049093;28;20114;-82
2023/12/12 07:29:34;;;;;;;11.55;6.47;;;;;;;5.65;100.00;100044.56;5049827;28;20052;-80
2023/12/12 07:32:01;;;;;;;7.53;5.32;;;;;;;5.64;100.00;100054.06;5047498;28;20048;-79
2023/12/12 07:34:28;;;;;;;10.55;4.63;;;;;;;5.68;100.00;100057.53;5061506;28;20068;-81
2023/12/12 07:36:54;;;;;;;6.97;5.18;;;;;;;5.75;100.00;100060.16;5061098;28;20569;-80
2023/12/12 07:39:21;;;;;;;9.82;4.50;;;;;;;5.83;100.00;100057.56;5050648;28;20110;-80
2023/12/12 07:41:47;;;;;;;7.68;4.68;;;;;;;5.88;100.00;100057.53;5050757;28;20041;-80
2023/12/12 07:44:14;;;;;;;15.68;5.53;;;;;;;5.88;100.00;100052.34;5064590;28;20048;-80
2023/12/12 07:46:41;;;;;;;10.05;5.30;;;;;;;5.87;100.00;100053.25;5049910;28;20048;-80
2023/12/12 07:49:07;;;;;;;16.63;5.35;;;;;;;5.86;100.00;100051.50;5048604;28;20152;-80
2023/12/12 07:51:34;;;;;;;10.20;5.07;;;;;;;5.86;100.00;100054.09;5050990;28;20040;-82
2023/12/12 07:54:06;;;;;;;13.07;4.78;;;;;;;5.88;100.00;100054.94;5046284;28;20041;-81
2023/12/12 07:56:32;;;;;;;8.68;5.45;;;;;;;5.95;100.00;100057.56;5049169;28;20055;-81
2023/12/12 07:58:59;;;;;;;13.90;5.90;;;;;;;6.00;100.00;100054.13;5047437;28;20056;-81
2023/12/12 08:01:25;;;;;;;12.02;5.72;;;;;;;6.02;100.00;100049.81;5047624;28;20055;-79
2023/12/12 08:03:56;;;;;;;13.82;6.15;;;;;;;6.05;100.00;100047.19;5039440;28;20050;-78
2023/12/12 08:06:22;;;;;;;9.93;5.65;;;;;;;6.03;100.00;100043.75;5046709;28;20173;-79
2023/12/12 08:08:49;;;;;;;10.73;5.55;;;;;;;6.07;100.00;100040.28;5066340;28;20716;-81
2023/12/12 08:11:16;;;;;;;10.07;5.55;;;;;;;6.17;100.00;100051.53;5064637;28;20368;-79
2023/12/12 08:13:43;;;;;;;9.95;5.00;;;;;;;6.21;100.00;100045.47;5048019;28;20111;-82
2023/12/12 08:16:10;;;;;;;9.48;5.32;;;;;;;6.21;100.00;100041.13;5046813;28;20514;-81
2023/12/12 08:18:37;;;;;;;10.70;5.45;;;;;;;6.23;100.00;100046.31;5065224;28;20052;-79
2023/12/12 08:21:04;;;;;;;12.38;6.32;;;;;;;6.24;100.00;100055.84;5055884;28;20040;-80
2023/12/12 08:23:30;;;;;;;10.77;5.85;;;;;;;6.25;100.00;100044.59;5043419;28;20052;-80
2023/12/12 08:25:59;;;;;;;12.27;6.32;;;;;;;6.30;100.00;100048.06;5042996;28;20040;-79
2023/12/12 08:28:26;;;;;;;10.32;5.32;;;;;;;6.30;100.00;100048.06;5063610;28;20055;-79
2023/12/12 08:30:53;;;;;;;13.55;6.28;;;;;;;6.37;100.00;100046.31;5063420;28;20054;-80
2023/12/12 08:33:20;;;;;;;13.48;6.65;;;;;;;6.40;100.00;100049.78;5061442;28;20040;-81
2023/12/12 08:35:48;;;;;;;10.75;6.50;;;;;;;6.46;100.00;100054.94;5048817;28;20044;-81
2023/12/12 08:38:14;;;;;;;11.65;6.35;;;;;;;6.51;100.00;100047.16;5046831;28;20090;-78
2023/12/12 08:40:41;;;;;;;6.68;5.13;;;;;;;6.56;100.00;100053.22;5047639;28;20049;-81
2023/12/12 08:43:07;;;;;;;8.32;5.38;;;;;;;6.60;100.00;100048.88;5062683;28;20156;-78
2023/12/12 08:45:34;;;;;;;10.00;6.45;;;;;;;6.57;100.00;100052.34;5063977;28;20056;-78
2023/12/12 08:48:00;;;;;;;14.75;6.78;;;;;;;6.54;100.00;100054.94;5065151;28;20694;-79
2023/12/12 08:50:27;;;;;;;13.00;6.55;;;;;;;6.51;100.00;100052.34;5043737;28;20495;-79
2023/12/12 08:52:54;;;;;;;11.15;6.45;;;;;;;6.49;100.00;100050.63;5048717;28;20054;-81
2023/12/12 08:55:20;;;;;;;14.02;6.97;;;;;;;6.46;100.00;100049.75;5046468;28;20051;-81
2023/12/12 08:57:48;;;;;;;8.65;6.55;;;;;;;6.53;100.00;100050.63;5064743;28;20543;-80
2023/12/12 09:00:15;;;;;;;12.90;7.03;;;;;;;6.64;100.00;100042.78;5047933;28;20044;-79
2023/12/12 09:02:41;;;;;;;11.10;7.55;;;;;;;6.73;100.00;100045.34;5061580;28;20159;-79
2023/12/12 09:05:08;;;;;;;10.07;6.13;;;;;;;6.82;100.00;100048.78;5060235;28;20075;-81
2023/12/12 09:07:35;;;;;;;13.32;6.85;;;;;;;6.81;100.00;100053.13;5062266;28;20589;-81
2023/12/12 09:10:04;;;;;;;10.40;6.72;;;;;;;6.75;100.00;100043.63;5063271;28;20048;-81
2023/12/12 09:12:33;;;;;;;13.35;7.45;;;;;;;6.72;100.00;100051.44;5038922;28;20085;-79
2023/12/12 09:15:02;;;;;;;17.17;7.30;;;;;;;6.76;100.00;100050.53;5046200;28;20048;-79
2023/12/12 09:17:29;;;;;;;18.75;7.15;;;;;;;6.83;100.00;100050.53;5046056;28;20051;-82
2023/12/12 09:19:59;;;;;;;17.42;7.88;;;;;;;6.83;100.00;100046.22;5046053;28;20044;-81
2023/12/12 09:22:25;;;;;;;11.88;7.07;;;;;;;6.83;100.00;100045.31;5061724;28;20086;-81
2023/12/12 09:24:52;;;;;;;11.13;7.45;;;;;;;6.81;100.00;100044.47;5062378;28;20411;-79
2023/12/12 09:27:18;;;;;;;11.55;7.22;;;;;;;6.84;100.00;100047.06;5060971;28;20063;-81
2023/12/12 09:29:45;;;;;;;14.63;7.90;;;;;;;6.86;100.00;100042.72;5063219;28;20425;-80
2023/12/12 09:32:13;;;;;;;12.35;7.20;;;;;;;6.86;100.00;100042.72;5061976;28;20125;-80
2023/12/12 09:34:43;;;;;;;8.90;7.18;;;;;;;6.82;100.00;100044.47;5061234;28;20044;-82
2023/12/12 09:37:09;;;;;;;13.88;7.38;;;;;;;6.87;100.00;100037.50;5047334;28;20080;-81
2023/12/12 09:39:36;;;;;;;11.65;7.15;;;;;;;6.96;100.00;100044.41;5047368;28;20047;-80
2023/12/12 09:42:12;;;;;;;13.70;7.68;;;;;;;6.94;100.00;100038.34;5061148;28;20040;-80
2023/12/12 09:44:42;;;;;;;18.52;8.82;;;;;;;6.99;100.00;100033.13;5044976;28;20052;-79
2023/12/12 09:47:09;;;;;;;16.33;8.90;;;;;;;7.06;100.00;100032.22;5045013;28;20143;-82
2023/12/12 09:49:36;;;;;;;16.13;9.70;;;;;;;7.14;100.00;100032.19;5060851;28;20052;-81
2023/12/12 09:52:04;;;;;;;14.65;9.10;;;;;;;7.07;100.00;100024.41;5028433;28;20075;-80
2023/12/12 09:54:31;;;;;;;16.52;8.73;;;;;;;7.16;100.00;100022.63;5043121;28;20534;-79
2023/12/12 09:56:58;;;;;;;17.23;9.60;;;;;;;7.09;100.00;100024.41;5055734;28;20064;-78
2023/12/12 09:59:24;;;;;;;12.73;8.07;;;;;;;7.09;100.00;100022.69;5044547;28;20045;-80
2023/12/12 10:01:56;;;;;;;20.58;9.60;;;;;;;7.09;100.00;100021.78;5046955;28;20032;-80
2023/12/12 10:04:25;;;;;;;19.88;9.35;;;;;;;7.11;100.00;100017.47;5059682;28;20068;-79
2023/12/12 10:06:54;;;;;;;15.77;8.63;;;;;;;7.18;100.00;100011.34;5060474;28;20395;-82
2023/12/12 10:09:21;;;;;;;15.23;9.90;;;;;;;7.21;100.00;100008.72;5061094;28;20048;-78
2023/12/12 10:11:48;;;;;;;13.82;8.43;;;;;;;7.26;100.00;100000.88;5043134;28;20123;-81
2023/12/12 10:14:15;;;;;;;18.00;10.52;;;;;;;7.34;100.00;99988.69;5060728;28;20114;-79
2023/12/12 10:16:42;;;;;;;18.23;9.70;;;;;;;7.49;100.00;99992.94;5061007;28;20070;-82
2023/12/12 10:19:13;;;;;;;17.55;11.05;;;;;;;7.58;100.00;99997.22;5061015;28;20052;-80
2023/12/12 10:21:39;;;;;;;17.23;10.38;;;;;;;7.66;100.00;99987.59;5041742;28;20034;-79
2023/12/12 10:24:06;;;;;;;16.48;9.82;;;;;;;7.70;100.00;99991.91;5036900;28;20055;-81
2023/12/12 10:26:33;;;;;;;15.70;9.73;;;;;;;7.76;100.00;99993.59;5044689;28;20048;-79
2023/12/12 10:29:01;;;;;;;19.60;10.70;;;;;;;7.81;100.00;99984.00;5048585;28;20048;-81
2023/12/12 10:31:29;;;;;;;19.95;9.80;;;;;;;7.86;100.00;99977.03;5045530;28;20525;-81
2023/12/12 10:33:57;;;;;;;17.75;9.68;;;;;;;7.92;100.00;99978.69;5046253;28;20070;-78
2023/12/12 10:36:24;;;;;;;21.20;12.05;;;;;;;7.92;100.00;99969.13;5058780;28;20045;-80
2023/12/12 10:38:51;;;;;;;17.60;10.60;;;;;;;8.03;100.00;99970.78;5044835;28;20049;-83
2023/12/12 10:41:19;;;;;;;20.80;10.95;;;;;;;8.07;100.00;99959.44;5046546;28;20060;-81
2023/12/12 10:43:50;;;;;;;18.17;10.32;;;;;;;8.18;100.00;99956.75;5038434;28;20048;-82
2023/12/12 10:46:20;;;;;;;17.98;10.25;;;;;;;8.29;100.00;99957.47;5062427;28;20052;-81
2023/12/12 10:48:50;;;;;;;19.90;11.73;;;;;;;8.34;100.00;99950.47;5062774;28;20041;-81
2023/12/12 10:51:27;;;;;;;19.30;10.18;;;;;;;8.40;100.00;99939.13;5061878;28;20503;-81
2023/12/12 10:54:00;;;;;;;16.33;9.68;;;;;;;8.33;100.00;99933.09;5048371;28;20037;-80
2023/12/12 10:56:35;;;;;;;18.15;10.30;;;;;;;8.44;100.00;99931.22;5049696;28;20426;-80
2023/12/12 10:59:03;;;;;;;16.65;9.77;;;;;;;8.53;100.00;99927.69;5048270;28;20132;-81
2023/12/12 11:01:31;;;;;;;17.25;10.85;;;;;;;8.62;100.00;99921.50;5049190;28;20040;-83
2023/12/12 11:04:05;;;;;;;13.30;9.52;;;;;;;8.68;100.00;99923.16;5035868;28;20434;-79
2023/12/12 11:06:34;;;;;;;19.13;11.43;;;;;;;8.69;100.00;99923.13;5064573;28;20047;-81
2023/12/12 11:09:04;;;;;;;13.85;9.40;;;;;;;8.71;100.00;99920.50;5080784;28;20045;-79
2023/12/12 11:11:34;;;;;;;12.45;9.00;;;;;;;8.68;100.00;99917.94;5066876;28;20044;-79
2023/12/12 11:14:05;;;;;;;15.63;9.80;;;;;;;8.52;100.00;99909.44;5066738;28;20051;-81
2023/12/12 11:16:31;;;;;;;16.73;9.13;;;;;;;8.46;100.00;99910.38;5043921;28;20056;-79
2023/12/12 11:19:00;;;;;;;12.77;8.73;;;;;;;8.32;100.00;99896.59;5064753;28;20040;-79
2023/12/12 11:21:47;;;;;;;15.95;9.98;;;;;;;8.30;100.00;99890.56;5060279;28;20562;-79